sensor_id;sensor_type;location;lat;lon;timestamp;pressure;altitude;pressure_sealevel;temperature;humidity
73633;BME280;61927;50.080;14.418;2023-04-09T00:01:21;100298.88;;;4.94;69.87
73633;BME280;61927;50.080;14.418;2023-04-09T00:03:46;100298.72;;;5.00;70.12
73633;BME280;61927;50.080;14.418;2023-04-09T00:06:12;100296.72;;;5.10;70.04
73633;BME280;61927;50.080;14.418;2023-04-09T00:08:37;100293.38;;;5.03;70.18
73633;BME280;61927;50.080;14.418;2023-04-09T00:11:03;100298.31;;;5.15;70.02
73633;BME280;61927;50.080;14.418;2023-04-09T00:13:29;100295.34;;;5.28;70.15
73633;BME280;61927;50.080;14.418;2023-04-09T00:15:54;100295.59;;;5.18;70.13
73633;BME280;61927;50.080;14.418;2023-04-09T00:18:20;100286.56;;;5.29;69.32
73633;BME280;61927;50.080;14.418;2023-04-09T00:20:46;100288.81;;;5.42;68.83
73633;BME280;61927;50.080;14.418;2023-04-09T00:23:11;100278.75;;;5.57;68.43
73633;BME280;61927;50.080;14.418;2023-04-09T00:25:37;100280.56;;;5.55;68.79
73633;BME280;61927;50.080;14.418;2023-04-09T00:28:02;100280.41;;;5.61;68.42
73633;BME280;61927;50.080;14.418;2023-04-09T00:30:29;100286.34;;;5.67;68.08
73633;BME280;61927;50.080;14.418;2023-04-09T00:32:55;100293.09;;;5.77;67.89
73633;BME280;61927;50.080;14.418;2023-04-09T00:35:21;100293.81;;;5.82;67.45
73633;BME280;61927;50.080;14.418;2023-04-09T00:37:46;100293.22;;;5.73;66.29
73633;BME280;61927;50.080;14.418;2023-04-09T00:40:12;100296.88;;;5.67;66.96
73633;BME280;61927;50.080;14.418;2023-04-09T00:42:38;100290.84;;;5.64;67.08
73633;BME280;61927;50.080;14.418;2023-04-09T00:45:04;100289.84;;;5.68;67.20
73633;BME280;61927;50.080;14.418;2023-04-09T00:47:31;100282.50;;;5.79;67.71
73633;BME280;61927;50.080;14.418;2023-04-09T00:49:57;100277.78;;;5.61;67.01
73633;BME280;61927;50.080;14.418;2023-04-09T00:52:23;100283.72;;;5.36;68.52
73633;BME280;61927;50.080;14.418;2023-04-09T00:54:50;100294.25;;;5.36;68.86
73633;BME280;61927;50.080;14.418;2023-04-09T00:57:16;100290.53;;;5.43;68.02
73633;BME280;61927;50.080;14.418;2023-04-09T00:59:43;100287.75;;;5.49;67.80
73633;BME280;61927;50.080;14.418;2023-04-09T01:02:09;100281.66;;;5.47;67.52
73633;BME280;61927;50.080;14.418;2023-04-09T01:04:35;100283.94;;;5.29;68.04
73633;BME280;61927;50.080;14.418;2023-04-09T01:07:12;100281.94;;;5.37;68.31
73633;BME280;61927;50.080;14.418;2023-04-09T01:09:49;100284.16;;;5.52;68.19
73633;BME280;61927;50.080;14.418;2023-04-09T01:15:30;100287.88;;;5.76;67.19
73633;BME280;61927;50.080;14.418;2023-04-09T01:18:05;100280.91;;;5.73;66.68
73633;BME280;61927;50.080;14.418;2023-04-09T01:20:39;100287.19;;;5.69;67.13
73633;BME280;61927;50.080;14.418;2023-04-09T01:25:44;100286.34;;;5.67;66.50
73633;BME280;61927;50.080;14.418;2023-04-09T01:28:20;100283.91;;;5.61;66.71
73633;BME280;61927;50.080;14.418;2023-04-09T01:30:52;100283.13;;;5.58;67.65
73633;BME280;61927;50.080;14.418;2023-04-09T01:33:23;100283.97;;;5.58;67.31
73633;BME280;61927;50.080;14.418;2023-04-09T01:35:51;100284.31;;;5.46;67.43
73633;BME280;61927;50.080;14.418;2023-04-09T01:38:19;100285.44;;;5.37;67.97
73633;BME280;61927;50.080;14.418;2023-04-09T01:40:47;100283.94;;;5.29;67.81
73633;BME280;61927;50.080;14.418;2023-04-09T01:43:14;100293.84;;;5.19;68.51
73633;BME280;61927;50.080;14.418;2023-04-09T01:45:41;100295.56;;;5.20;69.27
73633;BME280;61927;50.080;14.418;2023-04-09T01:48:07;100287.34;;;5.32;69.04
73633;BME280;61927;50.080;14.418;2023-04-09T01:50:34;100275.63;;;5.44;68.07
73633;BME280;61927;50.080;14.418;2023-04-09T01:53:00;100278.91;;;5.52;68.09
73633;BME280;61927;50.080;14.418;2023-04-09T01:55:26;100284.13;;;5.54;68.00
73633;BME280;61927;50.080;14.418;2023-04-09T01:57:52;100277.22;;;5.49;68.42
73633;BME280;61927;50.080;14.418;2023-04-09T02:00:18;100277.22;;;5.49;67.32
73633;BME280;61927;50.080;14.418;2023-04-09T02:05:56;100274.09;;;5.35;67.88
73633;BME280;61927;50.080;14.418;2023-04-09T02:08:26;100277.56;;;5.37;67.99
73633;BME280;61927;50.080;14.418;2023-04-09T02:10:55;100283.50;;;5.44;68.05
73633;BME280;61927;50.080;14.418;2023-04-09T02:13:23;100280.56;;;5.55;68.12
73633;BME280;61927;50.080;14.418;2023-04-09T02:15:51;100280.13;;;5.70;66.88
73633;BME280;61927;50.080;14.418;2023-04-09T02:18:25;100279.41;;;5.65;66.67
73633;BME280;61927;50.080;14.418;2023-04-09T02:20:52;100280.50;;;5.58;67.35
73633;BME280;61927;50.080;14.418;2023-04-09T02:23:18;100282.25;;;5.57;67.39
73633;BME280;61927;50.080;14.418;2023-04-09T02:25:44;100286.31;;;5.69;68.22
73633;BME280;61927;50.080;14.418;2023-04-09T02:28:10;100279.16;;;5.74;67.98
73633;BME280;61927;50.080;14.418;2023-04-09T02:30:36;100277.09;;;5.83;67.97
73633;BME280;61927;50.080;14.418;2023-04-09T02:33:02;100263.69;;;5.93;67.85
73633;BME280;61927;50.080;14.418;2023-04-09T02:35:27;100271.56;;;5.94;67.13
73633;BME280;61927;50.080;14.418;2023-04-09T02:37:53;100270.66;;;5.95;67.46
73633;BME280;61927;50.080;14.418;2023-04-09T02:40:18;100262.56;;;6.01;67.18
73633;BME280;61927;50.080;14.418;2023-04-09T02:42:45;100265.81;;;6.09;67.99
73633;BME280;61927;50.080;14.418;2023-04-09T02:45:11;100267.63;;;6.07;66.70
73633;BME280;61927;50.080;14.418;2023-04-09T02:47:37;100274.72;;;6.05;66.57
73633;BME280;61927;50.080;14.418;2023-04-09T02:50:03;100282.31;;;6.16;67.45
73633;BME280;61927;50.080;14.418;2023-04-09T02:52:29;100277.91;;;6.17;68.76
73633;BME280;61927;50.080;14.418;2023-04-09T02:54:54;100281.59;;;6.11;67.94
73633;BME280;61927;50.080;14.418;2023-04-09T02:57:20;100279.03;;;6.08;68.02
73633;BME280;61927;50.080;14.418;2023-04-09T02:59:45;100273.88;;;6.05;66.82
73633;BME280;61927;50.080;14.418;2023-04-09T03:02:11;100276.28;;;5.81;67.18
73633;BME280;61927;50.080;14.418;2023-04-09T03:04:37;100280.00;;;5.74;68.23
73633;BME280;61927;50.080;14.418;2023-04-09T03:07:03;100273.69;;;5.80;67.70
73633;BME280;61927;50.080;14.418;2023-04-09T03:09:28;100267.38;;;5.86;67.30
73633;BME280;61927;50.080;14.418;2023-04-09T03:11:55;100261.09;;;5.91;68.27
73633;BME280;61927;50.080;14.418;2023-04-09T03:14:22;100262.56;;;6.01;69.05
73633;BME280;61927;50.080;14.418;2023-04-09T03:16:48;100265.28;;;5.98;69.42
73633;BME280;61927;50.080;14.418;2023-04-09T03:19:14;100264.38;;;5.99;69.12
73633;BME280;61927;50.080;14.418;2023-04-09T03:21:40;100257.19;;;6.04;69.55
73633;BME280;61927;50.080;14.418;2023-04-09T03:24:05;100260.66;;;6.06;69.83
73633;BME280;61927;50.080;14.418;2023-04-09T03:26:31;100264.97;;;6.09;69.40
73633;BME280;61927;50.080;14.418;2023-04-09T03:29:04;100261.41;;;6.10;68.41
73633;BME280;61927;50.080;14.418;2023-04-09T03:31:31;100264.81;;;6.13;68.08
73633;BME280;61927;50.080;14.418;2023-04-09T03:33:57;100263.00;;;6.15;69.68
73633;BME280;61927;50.080;14.418;2023-04-09T03:36:22;100263.28;;;6.06;67.57
73633;BME280;61927;50.080;14.418;2023-04-09T03:38:48;100259.19;;;5.96;68.19
73633;BME280;61927;50.080;14.418;2023-04-09T03:41:14;100259.34;;;5.92;69.58
73633;BME280;61927;50.080;14.418;2023-04-09T03:43:40;100266.19;;;5.97;70.84
73633;BME280;61927;50.080;14.418;2023-04-09T03:46:15;100258.97;;;6.04;68.66
73633;BME280;61927;50.080;14.418;2023-04-09T03:48:42;100258.97;;;6.04;69.35
73633;BME280;61927;50.080;14.418;2023-04-09T03:51:15;100263.22;;;6.08;69.05
73633;BME280;61927;50.080;14.418;2023-04-09T03:53:41;100260.28;;;6.19;69.17
73633;BME280;61927;50.080;14.418;2023-04-09T03:56:08;100244.41;;;6.20;70.06
73633;BME280;61927;50.080;14.418;2023-04-09T03:58:34;100248.81;;;6.20;69.48
73633;BME280;61927;50.080;14.418;2023-04-09T04:01:00;100246.94;;;6.23;69.65
73633;BME280;61927;50.080;14.418;2023-04-09T04:03:26;100250.50;;;6.22;69.78
73633;BME280;61927;50.080;14.418;2023-04-09T04:05:51;100248.97;;;6.15;69.75
73633;BME280;61927;50.080;14.418;2023-04-09T04:08:17;100245.81;;;6.04;68.23
73633;BME280;61927;50.080;14.418;2023-04-09T04:10:42;100250.56;;;5.91;69.32
73633;BME280;61927;50.080;14.418;2023-04-09T04:13:08;100244.50;;;5.89;69.45
73633;BME280;61927;50.080;14.418;2023-04-09T04:15:40;100257.47;;;5.95;69.51
73633;BME280;61927;50.080;14.418;2023-04-09T04:18:09;100256.47;;;5.99;69.88
73633;BME280;61927;50.080;14.418;2023-04-09T04:20:35;100264.19;;;6.05;68.73
73633;BME280;61927;50.080;14.418;2023-04-09T04:23:02;100273.19;;;5.98;68.32
73633;BME280;61927;50.080;14.418;2023-04-09T04:25:28;100283.28;;;5.82;68.80
73633;BME280;61927;50.080;14.418;2023-04-09T04:27:53;100278.75;;;5.88;69.53
73633;BME280;61927;50.080;14.418;2023-04-09T04:30:20;100286.50;;;5.94;68.89
73633;BME280;61927;50.080;14.418;2023-04-09T04:32:46;100295.75;;;6.07;69.00
73633;BME280;61927;50.080;14.418;2023-04-09T04:35:12;100289.50;;;6.11;69.42
73633;BME280;61927;50.080;14.418;2023-04-09T04:37:38;100295.47;;;6.16;69.31
73633;BME280;61927;50.080;14.418;2023-04-09T04:40:08;100291.91;;;6.19;68.85
73633;BME280;61927;50.080;14.418;2023-04-09T04:42:34;100295.84;;;6.04;69.42
73633;BME280;61927;50.080;14.418;2023-04-09T04:45:00;100300.50;;;5.96;70.03
73633;BME280;61927;50.080;14.418;2023-04-09T04:47:26;100290.09;;;5.91;70.41
73633;BME280;61927;50.080;14.418;2023-04-09T04:49:52;100292.50;;;5.99;70.39
73633;BME280;61927;50.080;14.418;2023-04-09T04:52:18;100293.22;;;6.04;70.32
73633;BME280;61927;50.080;14.418;2023-04-09T04:54:44;100303.31;;;5.88;69.40
73633;BME280;61927;50.080;14.418;2023-04-09T04:57:09;100293.72;;;5.86;70.31
73633;BME280;61927;50.080;14.418;2023-04-09T04:59:39;100294.41;;;5.94;70.22
73633;BME280;61927;50.080;14.418;2023-04-09T05:02:05;100292.59;;;5.96;70.35
73633;BME280;61927;50.080;14.418;2023-04-09T05:04:31;100286.28;;;6.01;71.04
73633;BME280;61927;50.080;14.418;2023-04-09T05:06:57;100290.41;;;6.10;70.29
73633;BME280;61927;50.080;14.418;2023-04-09T05:09:22;100279.72;;;6.14;70.59
73633;BME280;61927;50.080;14.418;2023-04-09T05:11:48;100285.22;;;6.07;69.58
73633;BME280;61927;50.080;14.418;2023-04-09T05:14:14;100282.97;;;5.95;69.22
73633;BME280;61927;50.080;14.418;2023-04-09T05:16:39;100281.38;;;5.89;69.95
73633;BME280;61927;50.080;14.418;2023-04-09T05:19:05;100289.47;;;5.81;70.35
73633;BME280;61927;50.080;14.418;2023-04-09T05:21:30;100292.44;;;5.69;70.22
73633;BME280;61927;50.080;14.418;2023-04-09T05:23:56;100284.63;;;5.66;70.98
73633;BME280;61927;50.080;14.418;2023-04-09T05:26:22;100293.22;;;5.73;71.14
73633;BME280;61927;50.080;14.418;2023-04-09T05:28:48;100292.53;;;5.66;71.46
73633;BME280;61927;50.080;14.418;2023-04-09T05:31:14;100298.91;;;5.58;71.32
73633;BME280;61927;50.080;14.418;2023-04-09T05:33:41;100300.97;;;5.46;71.45
73633;BME280;61927;50.080;14.418;2023-04-09T05:36:06;100308.91;;;5.45;71.61
73633;BME280;61927;50.080;14.418;2023-04-09T05:38:32;100304.41;;;5.50;72.17
73633;BME280;61927;50.080;14.418;2023-04-09T05:40:58;100298.78;;;5.62;70.31
73633;BME280;61927;50.080;14.418;2023-04-09T05:43:24;100313.94;;;5.54;71.00
73633;BME280;61927;50.080;14.418;2023-04-09T05:45:50;100309.41;;;5.59;71.82
73633;BME280;61927;50.080;14.418;2023-04-09T05:48:15;100310.34;;;5.57;71.52
73633;BME280;61927;50.080;14.418;2023-04-09T05:50:51;100314.88;;;5.51;71.68
73633;BME280;61927;50.080;14.418;2023-04-09T05:53:18;100315.50;;;5.61;71.00
73633;BME280;61927;50.080;14.418;2023-04-09T05:55:44;100316.91;;;5.73;70.23
73633;BME280;61927;50.080;14.418;2023-04-09T05:58:10;100314.25;;;5.74;69.99
73633;BME280;61927;50.080;14.418;2023-04-09T06:00:36;100323.25;;;5.66;70.53
73633;BME280;61927;50.080;14.418;2023-04-09T06:03:02;100319.84;;;5.62;69.49
73633;BME280;61927;50.080;14.418;2023-04-09T06:05:27;100317.91;;;5.69;70.33
73633;BME280;61927;50.080;14.418;2023-04-09T06:07:54;100320.88;;;5.57;70.34
73633;BME280;61927;50.080;14.418;2023-04-09T06:10:19;100332.53;;;5.48;70.40
73633;BME280;61927;50.080;14.418;2023-04-09T06:12:46;100323.66;;;5.52;71.27
73633;BME280;61927;50.080;14.418;2023-04-09T06:15:11;100319.81;;;5.64;70.73
73633;BME280;61927;50.080;14.418;2023-04-09T06:17:37;100327.22;;;5.80;70.38
73633;BME280;61927;50.080;14.418;2023-04-09T06:20:03;100336.69;;;5.88;69.38
73633;BME280;61927;50.080;14.418;2023-04-09T06:22:29;100325.25;;;5.90;69.27
73633;BME280;61927;50.080;14.418;2023-04-09T06:24:54;100327.44;;;6.05;69.45
73633;BME280;61927;50.080;14.418;2023-04-09T06:27:20;100335.31;;;6.05;69.49
73633;BME280;61927;50.080;14.418;2023-04-09T06:29:46;100331.16;;;5.98;68.63
73633;BME280;61927;50.080;14.418;2023-04-09T06:32:12;100336.59;;;5.92;69.59
73633;BME280;61927;50.080;14.418;2023-04-09T06:34:38;100336.91;;;6.11;68.34
73633;BME280;61927;50.080;14.418;2023-04-09T06:37:03;100326.19;;;6.17;68.58
73633;BME280;61927;50.080;14.418;2023-04-09T06:39:29;100332.00;;;5.99;69.04
73633;BME280;61927;50.080;14.418;2023-04-09T06:41:55;100330.78;;;5.79;69.09
73633;BME280;61927;50.080;14.418;2023-04-09T06:44:20;100335.19;;;5.79;70.04
73633;BME280;61927;50.080;14.418;2023-04-09T06:46:46;100335.78;;;5.89;70.21
73633;BME280;61927;50.080;14.418;2023-04-09T06:49:12;100339.03;;;5.98;70.01
73633;BME280;61927;50.080;14.418;2023-04-09T06:51:37;100343.31;;;6.02;68.79
73633;BME280;61927;50.080;14.418;2023-04-09T06:54:03;100348.50;;;6.05;68.88
73633;BME280;61927;50.080;14.418;2023-04-09T06:56:28;100353.38;;;6.19;68.80
73633;BME280;61927;50.080;14.418;2023-04-09T06:58:54;100341.59;;;6.31;69.30
73633;BME280;61927;50.080;14.418;2023-04-09T07:01:19;100350.66;;;6.50;68.61
73633;BME280;61927;50.080;14.418;2023-04-09T07:03:45;100352.09;;;6.60;67.40
73633;BME280;61927;50.080;14.418;2023-04-09T07:06:11;100351.97;;;6.65;67.51
73633;BME280;61927;50.080;14.418;2023-04-09T07:08:37;100351.47;;;6.80;66.96
73633;BME280;61927;50.080;14.418;2023-04-09T07:11:02;100355.16;;;7.02;66.28
73633;BME280;61927;50.080;14.418;2023-04-09T07:13:28;100361.00;;;7.12;65.64
73633;BME280;61927;50.080;14.418;2023-04-09T07:15:54;100360.22;;;7.08;65.71
73633;BME280;61927;50.080;14.418;2023-04-09T07:18:19;100354.47;;;6.96;66.05
73633;BME280;61927;50.080;14.418;2023-04-09T07:20:45;100363.22;;;6.98;66.31
73633;BME280;61927;50.080;14.418;2023-04-09T07:23:10;100354.19;;;7.05;66.00
73633;BME280;61927;50.080;14.418;2023-04-09T07:25:36;100359.25;;;7.11;66.23
73633;BME280;61927;50.080;14.418;2023-04-09T07:28:02;100355.72;;;7.12;65.95
73633;BME280;61927;50.080;14.418;2023-04-09T07:30:27;100363.41;;;7.18;66.09
73633;BME280;61927;50.080;14.418;2023-04-09T07:32:53;100354.09;;;7.08;66.38
73633;BME280;61927;50.080;14.418;2023-04-09T07:35:19;100354.94;;;7.08;66.77
73633;BME280;61927;50.080;14.418;2023-04-09T07:37:45;100348.66;;;7.12;65.80
73633;BME280;61927;50.080;14.418;2023-04-09T07:40:11;100353.72;;;6.92;66.40
73633;BME280;61927;50.080;14.418;2023-04-09T07:42:37;100345.50;;;6.75;67.38
73633;BME280;61927;50.080;14.418;2023-04-09T07:45:04;100342.81;;;6.76;67.55
73633;BME280;61927;50.080;14.418;2023-04-09T07:47:30;100350.63;;;6.79;67.82
73633;BME280;61927;50.080;14.418;2023-04-09T07:49:56;100354.97;;;6.80;67.47
73633;BME280;61927;50.080;14.418;2023-04-09T07:52:21;100349.81;;;6.77;67.88
73633;BME280;61927;50.080;14.418;2023-04-09T07:54:47;100363.56;;;6.87;67.65
73633;BME280;61927;50.080;14.418;2023-04-09T07:57:12;100356.97;;;7.00;67.10
73633;BME280;61927;50.080;14.418;2023-04-09T07:59:38;100367.19;;;7.11;67.30
73633;BME280;61927;50.080;14.418;2023-04-09T08:02:04;100358.81;;;7.25;66.75
73633;BME280;61927;50.080;14.418;2023-04-09T08:04:30;100361.88;;;7.37;66.32
73633;BME280;61927;50.080;14.418;2023-04-09T08:06:55;100369.66;;;7.42;64.95
73633;BME280;61927;50.080;14.418;2023-04-09T08:09:21;100369.47;;;7.22;65.77
73633;BME280;61927;50.080;14.418;2023-04-09T08:11:48;100370.22;;;7.25;65.67
73633;BME280;61927;50.080;14.418;2023-04-09T08:14:15;100369.72;;;7.14;66.38
73633;BME280;61927;50.080;14.418;2023-04-09T08:16:47;100364.88;;;7.27;66.78
73633;BME280;61927;50.080;14.418;2023-04-09T08:19:15;100373.63;;;7.29;66.17
73633;BME280;61927;50.080;14.418;2023-04-09T08:21:41;100378.22;;;7.49;66.29
73633;BME280;61927;50.080;14.418;2023-04-09T08:24:08;100377.41;;;7.71;65.38
73633;BME280;61927;50.080;14.418;2023-04-09T08:26:39;100369.22;;;7.54;64.93
73633;BME280;61927;50.080;14.418;2023-04-09T08:29:06;100362.75;;;7.63;65.38
73633;BME280;61927;50.080;14.418;2023-04-09T08:31:32;100363.94;;;7.79;64.58
73633;BME280;61927;50.080;14.418;2023-04-09T08:33:57;100363.66;;;7.87;63.68
73633;BME280;61927;50.080;14.418;2023-04-09T08:36:23;100367.81;;;7.94;64.36
73633;BME280;61927;50.080;14.418;2023-04-09T08:38:49;100365.63;;;8.05;64.41
73633;BME280;61927;50.080;14.418;2023-04-09T08:41:18;100368.09;;;8.09;63.20
73633;BME280;61927;50.080;14.418;2023-04-09T08:43:46;100370.16;;;8.01;63.87
73633;BME280;61927;50.080;14.418;2023-04-09T08:46:13;100373.72;;;8.00;64.21
73633;BME280;61927;50.080;14.418;2023-04-09T08:48:43;100367.63;;;7.98;64.30
73633;BME280;61927;50.080;14.418;2023-04-09T08:51:15;100365.81;;;8.00;64.07
73633;BME280;61927;50.080;14.418;2023-04-09T08:53:48;100364.59;;;8.09;64.44
73633;BME280;61927;50.080;14.418;2023-04-09T08:56:18;100363.75;;;8.32;63.58
73633;BME280;61927;50.080;14.418;2023-04-09T08:58:45;100370.56;;;8.14;63.53
73633;BME280;61927;50.080;14.418;2023-04-09T09:01:22;100360.00;;;8.14;63.79
73633;BME280;61927;50.080;14.418;2023-04-09T09:04:02;100355.97;;;8.27;63.66
73633;BME280;61927;50.080;14.418;2023-04-09T09:06:30;100351.50;;;8.29;63.65
73633;BME280;61927;50.080;14.418;2023-04-09T09:11:29;100350.25;;;8.39;63.16
73633;BME280;61927;50.080;14.418;2023-04-09T09:14:14;100358.94;;;8.43;63.17
73633;BME280;61927;50.080;14.418;2023-04-09T09:16:42;100359.69;;;8.47;63.08
73633;BME280;61927;50.080;14.418;2023-04-09T09:19:27;100359.75;;;8.45;62.82
73633;BME280;61927;50.080;14.418;2023-04-09T09:22:00;100362.22;;;8.50;63.25
73633;BME280;61927;50.080;14.418;2023-04-09T09:24:26;100361.28;;;8.51;62.64
73633;BME280;61927;50.080;14.418;2023-04-09T09:26:52;100358.56;;;8.52;62.70
73633;BME280;61927;50.080;14.418;2023-04-09T09:29:24;100363.63;;;8.58;62.72
73633;BME280;61927;50.080;14.418;2023-04-09T09:31:52;100362.34;;;8.68;62.10
73633;BME280;61927;50.080;14.418;2023-04-09T09:34:19;100361.91;;;8.79;61.17
73633;BME280;61927;50.080;14.418;2023-04-09T09:36:45;100363.34;;;8.88;61.09
73633;BME280;61927;50.080;14.418;2023-04-09T09:39:12;100365.84;;;8.91;60.77
73633;BME280;61927;50.080;14.418;2023-04-09T09:41:39;100367.34;;;8.98;61.25
73633;BME280;61927;50.080;14.418;2023-04-09T09:44:07;100360.34;;;9.17;61.26
73633;BME280;61927;50.080;14.418;2023-04-09T09:46:35;100355.28;;;9.33;60.55
73633;BME280;61927;50.080;14.418;2023-04-09T09:49:01;100360.19;;;9.42;60.52
73633;BME280;61927;50.080;14.418;2023-04-09T09:51:27;100359.53;;;9.57;60.02
73633;BME280;61927;50.080;14.418;2023-04-09T09:53:57;100367.00;;;9.68;60.02
73633;BME280;61927;50.080;14.418;2023-04-09T09:56:24;100360.44;;;9.77;59.08
73633;BME280;61927;50.080;14.418;2023-04-09T09:59:11;100356.59;;;9.84;58.55
73633;BME280;61927;50.080;14.418;2023-04-09T10:01:39;100357.78;;;9.97;58.07
73633;BME280;61927;50.080;14.418;2023-04-09T10:04:05;100345.75;;;10.09;58.81
73633;BME280;61927;50.080;14.418;2023-04-09T10:06:39;100340.34;;;10.30;57.89
73633;BME280;61927;50.080;14.418;2023-04-09T10:09:07;100335.25;;;10.45;57.62
73633;BME280;61927;50.080;14.418;2023-04-09T10:11:35;100341.56;;;10.61;56.66
73633;BME280;61927;50.080;14.418;2023-04-09T10:14:02;100341.69;;;10.77;56.06
73633;BME280;61927;50.080;14.418;2023-04-09T10:16:28;100338.34;;;10.90;54.72
73633;BME280;61927;50.080;14.418;2023-04-09T10:18:58;100335.56;;;10.93;55.46
73633;BME280;61927;50.080;14.418;2023-04-09T10:21:39;100336.19;;;10.98;54.86
73633;BME280;61927;50.080;14.418;2023-04-09T10:24:07;100329.78;;;11.03;54.71
73633;BME280;61927;50.080;14.418;2023-04-09T10:26:34;100324.63;;;10.99;54.65
73633;BME280;61927;50.080;14.418;2023-04-09T10:29:27;100317.47;;;11.19;54.85
73633;BME280;61927;50.080;14.418;2023-04-09T10:32:04;100321.75;;;11.39;54.07
73633;BME280;61927;50.080;14.418;2023-04-09T10:34:34;100313.78;;;11.56;53.79
73633;BME280;61927;50.080;14.418;2023-04-09T10:37:00;100311.66;;;11.80;53.64
73633;BME280;61927;50.080;14.418;2023-04-09T10:39:29;100308.22;;;11.78;52.29
73633;BME280;61927;50.080;14.418;2023-04-09T10:41:55;100309.16;;;11.59;53.19
73633;BME280;61927;50.080;14.418;2023-04-09T10:44:26;100312.91;;;11.55;53.40
73633;BME280;61927;50.080;14.418;2023-04-09T10:46:53;100305.56;;;11.60;54.23
73633;BME280;61927;50.080;14.418;2023-04-09T10:49:24;100310.31;;;11.71;53.89
73633;BME280;61927;50.080;14.418;2023-04-09T10:59:34;100307.72;;;11.87;53.05
73633;BME280;61927;50.080;14.418;2023-04-09T11:01:59;100293.09;;;11.95;53.23
73633;BME280;61927;50.080;14.418;2023-04-09T11:04:37;100296.72;;;12.10;52.27
73633;BME280;61927;50.080;14.418;2023-04-09T11:07:04;100304.84;;;12.07;52.26
73633;BME280;61927;50.080;14.418;2023-04-09T11:09:34;100304.16;;;12.04;52.36
73633;BME280;61927;50.080;14.418;2023-04-09T11:12:00;100306.25;;;12.14;52.12
73633;BME280;61927;50.080;14.418;2023-04-09T11:14:26;100298.25;;;12.14;50.81
73633;BME280;61927;50.080;14.418;2023-04-09T11:16:52;100292.34;;;12.25;51.07
73633;BME280;61927;50.080;14.418;2023-04-09T11:19:19;100290.81;;;12.37;50.86
73633;BME280;61927;50.080;14.418;2023-04-09T11:21:46;100297.75;;;12.55;50.79
73633;BME280;61927;50.080;14.418;2023-04-09T11:24:13;100294.91;;;12.74;50.66
73633;BME280;61927;50.080;14.418;2023-04-09T11:26:38;100300.66;;;12.82;49.63
73633;BME280;61927;50.080;14.418;2023-04-09T11:29:05;100299.72;;;12.83;49.98
73633;BME280;61927;50.080;14.418;2023-04-09T11:31:35;100298.59;;;12.71;49.44
73633;BME280;61927;50.080;14.418;2023-04-09T11:34:01;100291.16;;;12.46;49.99
73633;BME280;61927;50.080;14.418;2023-04-09T11:36:27;100292.34;;;12.25;50.43
73633;BME280;61927;50.080;14.418;2023-04-09T11:38:56;100292.34;;;12.09;51.24
73633;BME280;61927;50.080;14.418;2023-04-09T11:41:35;100290.50;;;11.94;52.03
73633;BME280;61927;50.080;14.418;2023-04-09T11:44:02;100287.69;;;11.97;52.21
73633;BME280;61927;50.080;14.418;2023-04-09T11:46:31;100287.94;;;11.92;52.87
73633;BME280;61927;50.080;14.418;2023-04-09T11:48:57;100295.69;;;11.80;53.52
73633;BME280;61927;50.080;14.418;2023-04-09T11:51:23;100297.97;;;11.70;54.37
73633;BME280;61927;50.080;14.418;2023-04-09T11:53:49;100295.09;;;11.57;55.73
73633;BME280;61927;50.080;14.418;2023-04-09T11:56:15;100297.38;;;11.48;56.95
73633;BME280;61927;50.080;14.418;2023-04-09T11:58:45;100297.06;;;11.37;56.55
73633;BME280;61927;50.080;14.418;2023-04-09T12:01:11;100300.81;;;11.32;55.96
73633;BME280;61927;50.080;14.418;2023-04-09T12:03:37;100295.97;;;11.23;57.86
73633;BME280;61927;50.080;14.418;2023-04-09T12:06:04;100302.16;;;11.24;56.78
73633;BME280;61927;50.080;14.418;2023-04-09T12:08:33;100297.84;;;11.21;57.93
73633;BME280;61927;50.080;14.418;2023-04-09T12:11:13;100309.66;;;11.16;58.22
73633;BME280;61927;50.080;14.418;2023-04-09T12:13:40;100302.69;;;11.13;59.12
73633;BME280;61927;50.080;14.418;2023-04-09T12:16:11;100308.56;;;11.20;58.75
73633;BME280;61927;50.080;14.418;2023-04-09T12:18:38;100306.75;;;11.20;58.87
73633;BME280;61927;50.080;14.418;2023-04-09T12:21:04;100306.44;;;11.26;58.73
73633;BME280;61927;50.080;14.418;2023-04-09T12:23:31;100310.66;;;11.30;58.00
73633;BME280;61927;50.080;14.418;2023-04-09T12:25:58;100312.94;;;11.38;58.77
73633;BME280;61927;50.080;14.418;2023-04-09T12:28:25;100307.06;;;11.49;57.73
73633;BME280;61927;50.080;14.418;2023-04-09T12:30:52;100305.47;;;11.62;58.08
73633;BME280;61927;50.080;14.418;2023-04-09T12:33:18;100302.41;;;11.70;57.69
73633;BME280;61927;50.080;14.418;2023-04-09T12:35:44;100300.38;;;11.75;57.38
73633;BME280;61927;50.080;14.418;2023-04-09T12:38:10;100302.34;;;11.71;57.38
73633;BME280;61927;50.080;14.418;2023-04-09T12:40:37;100299.06;;;11.66;57.41
73633;BME280;61927;50.080;14.418;2023-04-09T12:43:03;100307.59;;;11.55;58.83
73633;BME280;61927;50.080;14.418;2023-04-09T12:45:29;100304.63;;;11.44;59.11
73633;BME280;61927;50.080;14.418;2023-04-09T12:47:55;100303.56;;;11.31;59.63
73633;BME280;61927;50.080;14.418;2023-04-09T12:50:21;100304.88;;;11.22;59.44
73633;BME280;61927;50.080;14.418;2023-04-09T12:52:46;100299.31;;;11.10;59.30
73633;BME280;61927;50.080;14.418;2023-04-09T12:55:13;100309.25;;;11.06;60.18
73633;BME280;61927;50.080;14.418;2023-04-09T12:57:42;100309.34;;;11.22;60.72
73633;BME280;61927;50.080;14.418;2023-04-09T13:00:09;100294.41;;;11.37;60.44
73633;BME280;61927;50.080;14.418;2023-04-09T13:02:35;100306.53;;;11.42;60.90
73633;BME280;61927;50.080;14.418;2023-04-09T13:05:01;100302.06;;;11.43;60.79
73633;BME280;61927;50.080;14.418;2023-04-09T13:07:27;100304.88;;;11.40;61.55